Terminal Aerodrome Forecast
Issued by NWS Pendleton, OR

Home | Current Version | Previous Version | Text Only | Print | Product List | Glossary On
Versions: 1 2 3 4 5 6 7 8 9 10 11 12 13 14 15 16 17 18 19 20 21
000
FTUS46 KPDT 231100
TAFPDT
TAF
KPDT 231120Z 2312/2412 VRB06KT P6SM -SHRA SCT025 OVC060
     FM231600 26009KT P6SM VCSH BKN060 OVC100
     FM232100 26012G20KT P6SM VCSH BKN040 BKN070 BKN120
     FM240400 23008KT P6SM BKN070 BKN200=

USA.gov is the U.S. government's official web portal to all federal, state and local government web resources and services.